Time;durP1;ratioP1;P1;durP2;ratioP2;P2;SDS_P1;SDS_P2;PMS_P1;PMS_P2;Temp;Humidity;BMP_temperature;BMP_pressure;BME280_temperature;BME280_humidity;BME280_pressure;Samples;Min_cycle;Max_cycle;Signal;HPM_P1;HPM_P2
2023/11/17 00:01:37;;;;;;;;;9.00;6.67;;;;;;;;5062581;28;47341;-80
2023/11/17 00:04:02;;;;;;;;;11.00;9.67;;;;;;;;5062317;28;48626;-79
2023/11/17 00:06:27;;;;;;;;;9.67;7.00;;;;;;;;5080994;28;45253;-80
2023/11/17 00:08:54;;;;;;;;;7.67;7.67;;;;;;;;5080721;28;45521;-80
2023/11/17 00:11:19;;;;;;;;;8.00;7.00;;;;;;;;5062593;28;46122;-80
2023/11/17 00:13:44;;;;;;;;;9.00;8.67;;;;;;;;5062324;28;47304;-79
2023/11/17 00:16:09;;;;;;;;;10.67;10.67;;;;;;;;5080776;28;45275;-80
2023/11/17 00:18:38;;;;;;;;;11.33;9.67;;;;;;;;5081094;28;45461;-80
2023/11/17 00:21:04;;;;;;;;;10.67;10.67;;;;;;;;5080129;28;45465;-80
2023/11/17 00:23:29;;;;;;;;;9.33;9.33;;;;;;;;5080535;28;46177;-80
2023/11/17 00:25:55;;;;;;;;;12.67;9.67;;;;;;;;5080438;28;45422;-80
2023/11/17 00:28:21;;;;;;;;;12.00;10.00;;;;;;;;5080853;28;45245;-80
2023/11/17 00:30:46;;;;;;;;;10.00;9.33;;;;;;;;5080307;28;45465;-80
2023/11/17 00:33:12;;;;;;;;;10.33;10.33;;;;;;;;5080677;28;45335;-80
2023/11/17 00:35:37;;;;;;;;;11.67;11.67;;;;;;;;5062368;28;46211;-81
2023/11/17 00:38:02;;;;;;;;;11.50;10.00;;;;;;;;5080853;28;45461;-80
2023/11/17 00:40:28;;;;;;;;;11.00;11.00;;;;;;;;5062275;28;45944;-80
2023/11/17 00:42:53;;;;;;;;;12.00;12.00;;;;;;;;5062162;28;47199;-80
2023/11/17 00:45:18;;;;;;;;;16.33;12.00;;;;;;;;5080517;28;45330;-80
2023/11/17 00:47:43;;;;;;;;;10.00;10.00;;;;;;;;5080516;28;45284;-80
2023/11/17 00:50:11;;;;;;;;;11.33;11.33;;;;;;;;5080282;28;45314;-81
2023/11/17 00:52:37;;;;;;;;;11.67;11.00;;;;;;;;5062145;28;48144;-80
2023/11/17 00:55:06;;;;;;;;;15.67;15.00;;;;;;;;5080290;28;45330;-80
2023/11/17 00:57:32;;;;;;;;;19.00;18.00;;;;;;;;5080438;28;45221;-81
2023/11/17 00:59:57;;;;;;;;;19.00;17.67;;;;;;;;5080085;28;45320;-80
2023/11/17 01:02:22;;;;;;;;;19.00;19.00;;;;;;;;5080212;28;46585;-81
2023/11/17 01:04:49;;;;;;;;;13.33;13.33;;;;;;;;5080360;28;45272;-81
2023/11/17 01:07:14;;;;;;;;;20.33;19.67;;;;;;;;5061912;28;45352;-81
2023/11/17 01:09:40;;;;;;;;;19.25;16.00;;;;;;;;5079857;28;45158;-81
2023/11/17 01:12:05;;;;;;;;;9.00;8.00;;;;;;;;5061849;28;47379;-80
2023/11/17 01:14:31;;;;;;;;;11.33;10.67;;;;;;;;5079853;28;45287;-80
2023/11/17 01:16:56;;;;;;;;;12.33;11.33;;;;;;;;5060740;28;45367;-80
2023/11/17 01:19:21;;;;;;;;;9.75;8.00;;;;;;;;5080082;28;45236;-81
2023/11/17 01:21:46;;;;;;;;;12.00;12.00;;;;;;;;5061661;28;47241;-81
2023/11/17 01:24:12;;;;;;;;;9.67;9.00;;;;;;;;5080065;28;45281;-80
2023/11/17 01:26:37;;;;;;;;;10.00;10.00;;;;;;;;5080020;28;45235;-80
2023/11/17 01:29:04;;;;;;;;;9.00;9.00;;;;;;;;5058064;28;46025;-80
2023/11/17 01:31:29;;;;;;;;;13.33;10.00;;;;;;;;5059236;28;45354;-80
2023/11/17 01:33:54;;;;;;;;;8.67;8.67;;;;;;;;5059459;28;45298;-81
2023/11/17 01:36:20;;;;;;;;;11.67;10.67;;;;;;;;5059457;28;45261;-81
2023/11/17 01:38:45;;;;;;;;;8.67;8.00;;;;;;;;5058079;28;47527;-80
2023/11/17 01:41:10;;;;;;;;;11.67;10.00;;;;;;;;5059473;28;45323;-80
2023/11/17 01:43:36;;;;;;;;;7.75;7.75;;;;;;;;5058064;28;45342;-80
2023/11/17 01:46:02;;;;;;;;;9.67;8.00;;;;;;;;5058161;28;45290;-80
2023/11/17 01:48:27;;;;;;;;;9.00;8.00;;;;;;;;5059448;28;45442;-81
2023/11/17 01:50:53;;;;;;;;;8.00;6.67;;;;;;;;5057700;28;46955;-80
2023/11/17 01:53:18;;;;;;;;;8.00;6.67;;;;;;;;5059431;28;45307;-80
2023/11/17 01:55:44;;;;;;;;;6.00;6.00;;;;;;;;5059445;28;45457;-81
2023/11/17 01:58:11;;;;;;;;;7.00;7.00;;;;;;;;5059353;28;45371;-80
2023/11/17 02:00:36;;;;;;;;;8.00;7.00;;;;;;;;5058945;28;45383;-80
2023/11/17 02:03:01;;;;;;;;;7.00;6.67;;;;;;;;5059126;28;45342;-80
2023/11/17 02:05:27;;;;;;;;;6.00;6.00;;;;;;;;5059293;28;45260;-80
2023/11/17 02:07:58;;;;;;;;;5.00;5.00;;;;;;;;5059069;28;45305;-80
2023/11/17 02:10:46;;;;;;;;;6.00;4.67;;;;;;;;5074512;28;47058;-80
2023/11/17 02:13:17;;;;;;;;;7.00;6.00;;;;;;;;5055809;28;45307;-80
2023/11/17 02:15:43;;;;;;;;;7.00;7.00;;;;;;;;5058749;28;45363;-80
2023/11/17 02:18:11;;;;;;;;;5.00;5.00;;;;;;;;5058709;28;45902;-80
2023/11/17 02:20:37;;;;;;;;;5.33;5.33;;;;;;;;5058882;28;46576;-79
2023/11/17 02:23:10;;;;;;;;;5.67;5.67;;;;;;;;5058994;28;45325;-81
2023/11/17 02:25:35;;;;;;;;;6.33;6.33;;;;;;;;5059256;28;45391;-80
2023/11/17 02:28:20;;;;;;;;;6.00;6.00;;;;;;;;5078724;28;45941;-81
2023/11/17 02:30:55;;;;;;;;;5.33;5.33;;;;;;;;5061971;28;46379;-80
2023/11/17 02:33:21;;;;;;;;;5.00;4.33;;;;;;;;5062103;28;45273;-81
2023/11/17 02:35:49;;;;;;;;;6.67;6.67;;;;;;;;5060906;28;45288;-80
2023/11/17 02:38:15;;;;;;;;;5.67;5.00;;;;;;;;5044025;28;46827;-80
2023/11/17 02:40:40;;;;;;;;;4.00;4.00;;;;;;;;5043904;28;48205;-80
2023/11/17 02:43:07;;;;;;;;;4.75;4.75;;;;;;;;5062234;28;45371;-81
2023/11/17 02:45:36;;;;;;;;;4.67;4.33;;;;;;;;5062191;28;45253;-81
2023/11/17 02:48:02;;;;;;;;;3.00;3.00;;;;;;;;5062100;28;45319;-81
2023/11/17 02:50:51;;;;;;;;;3.33;3.00;;;;;;;;5043401;28;47274;-83
2023/11/17 02:53:23;;;;;;;;;4.00;3.33;;;;;;;;5060473;28;45398;-80
2023/11/17 02:55:49;;;;;;;;;3.00;3.00;;;;;;;;5062065;28;45346;-80
2023/11/17 02:58:15;;;;;;;;;3.00;3.00;;;;;;;;5061847;28;45324;-80
2023/11/17 03:00:41;;;;;;;;;6.33;4.33;;;;;;;;5061551;28;45370;-80
2023/11/17 03:03:06;;;;;;;;;6.00;5.00;;;;;;;;5060459;28;46223;-80
2023/11/17 03:05:32;;;;;;;;;6.67;5.00;;;;;;;;5060530;28;45844;-80
2023/11/17 03:07:57;;;;;;;;;4.67;4.67;;;;;;;;5061842;28;46070;-80
2023/11/17 03:10:22;;;;;;;;;2.50;2.50;;;;;;;;5061602;28;45220;-80
2023/11/17 03:12:50;;;;;;;;;3.33;2.00;;;;;;;;5060418;28;45343;-80
2023/11/17 03:15:15;;;;;;;;;2.00;2.00;;;;;;;;5061541;28;45456;-80
2023/11/17 03:17:40;;;;;;;;;4.00;3.00;;;;;;;;5061408;28;45544;-80
2023/11/17 03:20:07;;;;;;;;;3.00;3.00;;;;;;;;5061742;28;45418;-80
2023/11/17 03:22:32;;;;;;;;;4.00;3.00;;;;;;;;5060205;28;45339;-80
2023/11/17 03:24:57;;;;;;;;;2.67;2.67;;;;;;;;5061566;28;45322;-80
2023/11/17 03:27:22;;;;;;;;;3.00;3.00;;;;;;;;5061488;28;45306;-79
2023/11/17 03:29:48;;;;;;;;;3.00;3.00;;;;;;;;5073841;28;45399;-80
2023/11/17 03:32:13;;;;;;;;;4.00;3.00;;;;;;;;5080178;28;45268;-80
2023/11/17 03:34:40;;;;;;;;;3.00;3.00;;;;;;;;5081870;28;45296;-80
2023/11/17 03:37:05;;;;;;;;;3.67;3.33;;;;;;;;5081410;28;45317;-80
2023/11/17 03:39:32;;;;;;;;;4.00;3.00;;;;;;;;5080701;28;46240;-80
2023/11/17 03:41:58;;;;;;;;;3.00;2.00;;;;;;;;5081519;28;45342;-80
2023/11/17 03:44:27;;;;;;;;;4.00;2.33;;;;;;;;5081532;28;45336;-80
2023/11/17 03:46:56;;;;;;;;;3.00;3.00;;;;;;;;5079787;28;46276;-80
2023/11/17 03:49:21;;;;;;;;;3.00;3.00;;;;;;;;5081205;28;45790;-80
2023/11/17 03:51:48;;;;;;;;;3.33;3.33;;;;;;;;5081308;28;45361;-80
2023/11/17 03:54:15;;;;;;;;;2.00;2.00;;;;;;;;5081477;28;45245;-80
2023/11/17 03:56:40;;;;;;;;;3.33;3.33;;;;;;;;5079828;28;46509;-79
2023/11/17 03:59:09;;;;;;;;;3.00;3.00;;;;;;;;5081024;28;45450;-80
2023/11/17 04:01:35;;;;;;;;;3.00;3.00;;;;;;;;5081055;28;45482;-80
2023/11/17 04:04:00;;;;;;;;;7.00;4.00;;;;;;;;5081446;28;45378;-80
2023/11/17 04:06:25;;;;;;;;;4.00;4.00;;;;;;;;5081055;28;45293;-80
2023/11/17 04:08:50;;;;;;;;;8.00;8.00;;;;;;;;5079443;28;47231;-80
2023/11/17 04:11:16;;;;;;;;;10.00;9.33;;;;;;;;5081059;28;45331;-80
2023/11/17 04:13:42;;;;;;;;;5.33;5.33;;;;;;;;5079789;28;45177;-80
2023/11/17 04:16:07;;;;;;;;;2.33;2.33;;;;;;;;5080889;28;45359;-80
2023/11/17 04:18:32;;;;;;;;;3.33;3.33;;;;;;;;5080760;28;46134;-80
2023/11/17 04:20:58;;;;;;;;;3.00;2.67;;;;;;;;5080978;28;45142;-80
2023/11/17 04:23:23;;;;;;;;;3.33;3.00;;;;;;;;5081200;28;45313;-80
2023/11/17 04:25:49;;;;;;;;;7.00;6.67;;;;;;;;5079433;28;46303;-80
2023/11/17 04:28:14;;;;;;;;;7.33;7.00;;;;;;;;5080715;28;45253;-80
2023/11/17 04:30:39;;;;;;;;;5.25;5.25;;;;;;;;5060463;28;45308;-80
2023/11/17 04:33:04;;;;;;;;;5.67;4.33;;;;;;;;5060655;28;45248;-80
2023/11/17 04:35:29;;;;;;;;;9.25;8.25;;;;;;;;5060422;28;45393;-79
2023/11/17 04:37:55;;;;;;;;;6.00;6.00;;;;;;;;5060451;28;45267;-80
2023/11/17 04:40:21;;;;;;;;;5.00;5.00;;;;;;;;5058883;28;45300;-80
2023/11/17 04:42:46;;;;;;;;;4.33;3.67;;;;;;;;5060351;28;45566;-80
2023/11/17 04:45:11;;;;;;;;;6.00;6.00;;;;;;;;5058737;28;46997;-80
2023/11/17 04:47:36;;;;;;;;;3.67;3.67;;;;;;;;5075732;28;46972;-80
2023/11/17 04:50:02;;;;;;;;;4.33;4.33;;;;;;;;5060216;28;45424;-80
2023/11/17 04:52:27;;;;;;;;;4.00;3.00;;;;;;;;5060187;28;45394;-80
2023/11/17 04:54:53;;;;;;;;;4.00;3.33;;;;;;;;5058780;28;45957;-80
2023/11/17 04:57:18;;;;;;;;;4.33;4.00;;;;;;;;5060129;28;46407;-80
2023/11/17 04:59:45;;;;;;;;;5.50;4.50;;;;;;;;5058763;28;45427;-80
2023/11/17 05:02:10;;;;;;;;;4.00;4.00;;;;;;;;5059973;28;45275;-79
2023/11/17 05:04:35;;;;;;;;;4.75;4.00;;;;;;;;5060049;28;45303;-80
2023/11/17 05:07:01;;;;;;;;;3.00;3.00;;;;;;;;5058623;28;47092;-80
2023/11/17 05:09:26;;;;;;;;;4.00;4.00;;;;;;;;5058409;28;45644;-80
2023/11/17 05:11:52;;;;;;;;;5.33;5.00;;;;;;;;5059997;28;45500;-80
2023/11/17 05:14:17;;;;;;;;;6.00;5.00;;;;;;;;5059565;28;46054;-80
2023/11/17 05:16:43;;;;;;;;;3.25;3.25;;;;;;;;5058168;28;47425;-80
2023/11/17 05:19:08;;;;;;;;;5.33;4.00;;;;;;;;5059802;28;45252;-80
2023/11/17 05:21:33;;;;;;;;;4.33;4.33;;;;;;;;5059778;28;45327;-80
2023/11/17 05:23:59;;;;;;;;;4.00;4.00;;;;;;;;5058296;28;47119;-80
2023/11/17 05:26:25;;;;;;;;;6.00;4.00;;;;;;;;5059544;28;45986;-80
2023/11/17 05:28:50;;;;;;;;;5.33;5.33;;;;;;;;5064225;28;45153;-80
2023/11/17 05:31:17;;;;;;;;;5.33;5.33;;;;;;;;5078402;28;45241;-80
2023/11/17 05:33:42;;;;;;;;;5.00;5.00;;;;;;;;5078445;28;46199;-80
2023/11/17 05:36:07;;;;;;;;;5.75;5.25;;;;;;;;5061563;28;48189;-80
2023/11/17 05:38:32;;;;;;;;;5.67;5.67;;;;;;;;5079736;28;45243;-80
2023/11/17 05:40:58;;;;;;;;;7.67;5.00;;;;;;;;5079954;28;45526;-81
2023/11/17 05:43:23;;;;;;;;;5.33;5.00;;;;;;;;5079725;28;45346;-80
2023/11/17 05:45:50;;;;;;;;;3.00;3.00;;;;;;;;5079492;28;45364;-80
2023/11/17 05:48:18;;;;;;;;;5.33;5.33;;;;;;;;5079716;28;45358;-80
2023/11/17 05:50:44;;;;;;;;;7.00;7.00;;;;;;;;5079542;28;45248;-80
2023/11/17 05:53:09;;;;;;;;;5.00;5.00;;;;;;;;5061317;28;47027;-80
2023/11/17 05:55:35;;;;;;;;;6.00;6.00;;;;;;;;5061269;28;47397;-80
2023/11/17 05:58:00;;;;;;;;;6.00;5.00;;;;;;;;5079687;28;45283;-80
2023/11/17 06:00:27;;;;;;;;;5.67;5.67;;;;;;;;5079618;28;45607;-81
2023/11/17 06:02:53;;;;;;;;;5.00;5.00;;;;;;;;5079369;28;47063;-80
2023/11/17 06:05:18;;;;;;;;;4.33;4.33;;;;;;;;5082820;28;45343;-80
2023/11/17 06:07:44;;;;;;;;;5.00;5.00;;;;;;;;5082897;28;45447;-79
2023/11/17 06:10:10;;;;;;;;;5.33;4.67;;;;;;;;5082981;28;45269;-80
2023/11/17 06:12:35;;;;;;;;;5.00;5.00;;;;;;;;5082976;28;45552;-80
2023/11/17 06:15:01;;;;;;;;;7.00;7.00;;;;;;;;5064732;28;47079;-79
2023/11/17 06:17:26;;;;;;;;;8.00;8.00;;;;;;;;5081115;28;45273;-80
2023/11/17 06:19:51;;;;;;;;;5.67;5.67;;;;;;;;5082914;28;45321;-80
2023/11/17 06:22:16;;;;;;;;;5.00;5.00;;;;;;;;5081353;28;46431;-80
2023/11/17 06:24:42;;;;;;;;;10.33;8.00;;;;;;;;5064462;28;48172;-80
2023/11/17 06:27:10;;;;;;;;;6.00;6.00;;;;;;;;5083202;28;45386;-79
2023/11/17 06:29:36;;;;;;;;;8.33;7.00;;;;;;;;5073456;28;45462;-81
2023/11/17 06:32:02;;;;;;;;;10.00;9.00;;;;;;;;5068899;28;45284;-80
2023/11/17 06:34:27;;;;;;;;;7.00;5.33;;;;;;;;5064788;28;47792;-81
2023/11/17 06:36:53;;;;;;;;;7.33;7.33;;;;;;;;5062771;28;45410;-81
2023/11/17 06:39:18;;;;;;;;;4.75;4.75;;;;;;;;5065950;28;45267;-81
2023/11/17 06:41:47;;;;;;;;;6.00;6.00;;;;;;;;5081906;28;45367;-80
2023/11/17 06:44:12;;;;;;;;;5.00;5.00;;;;;;;;5069875;28;47350;-81
2023/11/17 06:46:41;;;;;;;;;4.00;4.00;;;;;;;;5089414;28;45315;-80
2023/11/17 06:49:08;;;;;;;;;6.67;6.67;;;;;;;;5090981;28;45299;-79
2023/11/17 06:51:34;;;;;;;;;7.00;6.33;;;;;;;;5085377;28;45413;-79
2023/11/17 06:53:59;;;;;;;;;8.00;8.00;;;;;;;;5090333;28;46159;-79
2023/11/17 06:56:25;;;;;;;;;7.00;6.00;;;;;;;;5068947;28;45241;-79
2023/11/17 06:58:50;;;;;;;;;11.33;9.67;;;;;;;;5066821;28;45253;-78
2023/11/17 07:01:18;;;;;;;;;10.25;10.25;;;;;;;;5083781;28;45574;-79
2023/11/17 07:03:43;;;;;;;;;10.00;10.00;;;;;;;;5064870;28;47016;-78
2023/11/17 07:06:11;;;;;;;;;15.00;10.33;;;;;;;;5081897;28;45359;-79
2023/11/17 07:08:37;;;;;;;;;11.00;10.00;;;;;;;;5081687;28;45629;-79
2023/11/17 07:11:03;;;;;;;;;7.33;6.67;;;;;;;;5082261;28;45554;-79
2023/11/17 07:13:28;;;;;;;;;14.33;12.33;;;;;;;;5063376;28;47209;-79
2023/11/17 07:15:54;;;;;;;;;16.00;15.33;;;;;;;;5081287;28;45243;-78
2023/11/17 07:18:20;;;;;;;;;19.67;19.67;;;;;;;;5082401;28;45493;-78
2023/11/17 07:20:45;;;;;;;;;13.67;13.67;;;;;;;;5082063;28;45427;-77
2023/11/17 07:23:11;;;;;;;;;11.67;11.67;;;;;;;;5082457;28;45440;-79
2023/11/17 07:25:43;;;;;;;;;13.00;12.00;;;;;;;;5063861;28;45257;-77
2023/11/17 07:28:08;;;;;;;;;11.33;11.33;;;;;;;;5064033;28;45360;-76
2023/11/17 07:30:34;;;;;;;;;11.25;10.00;;;;;;;;5081871;28;45508;-76
2023/11/17 07:32:59;;;;;;;;;13.00;11.00;;;;;;;;5082034;28;46021;-77
2023/11/17 07:35:26;;;;;;;;;10.50;10.50;;;;;;;;5063352;28;46264;-77
2023/11/17 07:37:52;;;;;;;;;8.67;8.67;;;;;;;;5063345;28;45374;-80
2023/11/17 07:40:17;;;;;;;;;7.33;7.33;;;;;;;;5081892;28;46010;-77
2023/11/17 07:42:42;;;;;;;;;8.67;6.00;;;;;;;;5082295;28;45445;-78
2023/11/17 07:45:10;;;;;;;;;7.33;7.33;;;;;;;;5080310;28;45810;-77
2023/11/17 07:47:36;;;;;;;;;8.67;7.00;;;;;;;;5081994;28;45414;-78
2023/11/17 07:50:03;;;;;;;;;7.00;7.00;;;;;;;;5084107;28;45382;-77
2023/11/17 07:52:28;;;;;;;;;7.00;7.00;;;;;;;;5083533;28;45365;-77
2023/11/17 07:54:53;;;;;;;;;11.00;10.00;;;;;;;;5065391;28;45359;-77
2023/11/17 07:57:19;;;;;;;;;9.25;8.25;;;;;;;;5083562;28;45307;-77
2023/11/17 07:59:44;;;;;;;;;6.00;6.00;;;;;;;;5082738;28;45390;-77
2023/11/17 08:02:09;;;;;;;;;9.33;7.00;;;;;;;;5084622;28;46282;-77
2023/11/17 08:04:36;;;;;;;;;9.00;9.00;;;;;;;;5080822;28;45433;-77
2023/11/17 08:07:01;;;;;;;;;7.00;7.00;;;;;;;;5063929;28;45286;-78
2023/11/17 08:09:26;;;;;;;;;8.67;7.67;;;;;;;;5084184;28;45490;-77
2023/11/17 08:11:52;;;;;;;;;18.67;17.33;;;;;;;;5083180;28;45453;-77
2023/11/17 08:14:19;;;;;;;;;27.67;23.00;;;;;;;;5083803;28;45211;-78
2023/11/17 08:16:44;;;;;;;;;12.33;11.00;;;;;;;;5083951;28;45462;-78
2023/11/17 08:19:09;;;;;;;;;19.33;19.00;;;;;;;;5083585;28;45252;-78
2023/11/17 08:21:35;;;;;;;;;16.00;13.67;;;;;;;;5085005;28;45323;-77
2023/11/17 08:24:00;;;;;;;;;15.67;14.33;;;;;;;;5086729;28;45250;-78
2023/11/17 08:26:29;;;;;;;;;15.67;15.00;;;;;;;;5084785;28;45146;-78
2023/11/17 08:28:54;;;;;;;;;17.67;17.67;;;;;;;;5077965;28;45771;-79
2023/11/17 08:31:19;;;;;;;;;18.75;16.50;;;;;;;;5068772;28;47304;-78
2023/11/17 08:33:45;;;;;;;;;10.00;9.00;;;;;;;;5080756;28;45366;-79
2023/11/17 08:36:11;;;;;;;;;9.67;9.33;;;;;;;;5080026;28;45380;-78
2023/11/17 08:38:42;;;;;;;;;9.33;9.33;;;;;;;;5057698;28;46433;-76
2023/11/17 08:41:08;;;;;;;;;14.00;14.00;;;;;;;;5076915;28;45459;-76
2023/11/17 08:43:33;;;;;;;;;10.67;9.67;;;;;;;;5080125;28;45339;-76
2023/11/17 08:45:58;;;;;;;;;7.33;7.00;;;;;;;;5080591;28;45645;-76
2023/11/17 08:48:23;;;;;;;;;10.00;9.00;;;;;;;;5080400;28;45404;-76
2023/11/17 08:50:48;;;;;;;;;8.33;8.33;;;;;;;;5080475;28;45379;-77
2023/11/17 08:53:14;;;;;;;;;6.00;5.25;;;;;;;;5083207;28;45710;-76
2023/11/17 08:55:41;;;;;;;;;8.67;7.00;;;;;;;;5065008;28;45436;-76
2023/11/17 08:58:06;;;;;;;;;7.00;7.00;;;;;;;;5078101;28;45364;-77
2023/11/17 09:00:31;;;;;;;;;7.67;6.67;;;;;;;;5059455;28;47364;-77
2023/11/17 09:02:56;;;;;;;;;5.67;5.67;;;;;;;;5060778;28;45390;-76
2023/11/17 09:05:22;;;;;;;;;10.00;6.33;;;;;;;;5059461;28;45300;-77
2023/11/17 09:07:49;;;;;;;;;5.00;5.00;;;;;;;;5058593;28;45314;-78
2023/11/17 09:10:16;;;;;;;;;7.00;7.00;;;;;;;;5058090;28;45925;-78
2023/11/17 09:12:42;;;;;;;;;6.00;5.33;;;;;;;;5040367;28;45884;-77
2023/11/17 09:15:09;;;;;;;;;4.33;4.33;;;;;;;;5063870;28;44863;-77
2023/11/17 09:17:35;;;;;;;;;6.00;4.33;;;;;;;;5069581;28;45767;-77
2023/11/17 09:20:02;;;;;;;;;6.67;6.00;;;;;;;;5084024;28;45437;-78
2023/11/17 09:22:27;;;;;;;;;6.00;5.00;;;;;;;;5070275;28;45451;-77
2023/11/17 09:24:52;;;;;;;;;6.33;4.67;;;;;;;;5063203;28;45365;-78
2023/11/17 09:27:17;;;;;;;;;6.00;5.33;;;;;;;;5060730;28;45627;-77
2023/11/17 09:29:42;;;;;;;;;6.00;6.00;;;;;;;;5071613;28;45251;-77
2023/11/17 09:32:08;;;;;;;;;4.67;4.67;;;;;;;;5081730;28;45320;-77
2023/11/17 09:34:33;;;;;;;;;6.00;5.33;;;;;;;;5081576;28;45253;-76
2023/11/17 09:36:59;;;;;;;;;6.67;6.00;;;;;;;;5084092;28;45287;-78
2023/11/17 09:39:25;;;;;;;;;5.67;5.67;;;;;;;;5081909;28;47260;-77
2023/11/17 09:41:50;;;;;;;;;6.33;6.33;;;;;;;;5082473;28;45316;-77
2023/11/17 09:44:16;;;;;;;;;9.00;8.00;;;;;;;;5064988;28;45263;-77
2023/11/17 09:46:49;;;;;;;;;5.00;4.33;;;;;;;;5082987;28;45435;-76
2023/11/17 09:49:15;;;;;;;;;5.67;5.00;;;;;;;;5081855;28;45322;-76
2023/11/17 09:51:42;;;;;;;;;6.67;6.00;;;;;;;;5081389;28;45336;-76
2023/11/17 09:54:12;;;;;;;;;7.00;5.33;;;;;;;;5082593;28;45282;-77
2023/11/17 09:56:37;;;;;;;;;5.00;5.00;;;;;;;;5081279;28;45268;-77
2023/11/17 09:59:03;;;;;;;;;7.00;6.00;;;;;;;;5081636;28;45884;-77
2023/11/17 10:01:32;;;;;;;;;10.33;9.67;;;;;;;;5081271;28;45233;-77
2023/11/17 10:04:00;;;;;;;;;17.00;14.00;;;;;;;;5082685;28;45322;-76
2023/11/17 10:06:27;;;;;;;;;7.33;7.33;;;;;;;;5084059;28;45524;-76
2023/11/17 10:08:53;;;;;;;;;12.00;11.33;;;;;;;;5082462;28;46484;-76
2023/11/17 10:11:20;;;;;;;;;8.00;8.00;;;;;;;;5083334;28;45371;-77
2023/11/17 10:13:47;;;;;;;;;6.33;5.00;;;;;;;;5084444;28;45370;-76
